sensor_id;sensor_type;location;lat;lon;timestamp;P1;durP1;ratioP1;P2;durP2;ratioP2
36745;SDS011;22715;52.182;21.206;2022-10-19T00:01:39;18.63;;;13.30;;
36745;SDS011;22715;52.182;21.206;2022-10-19T00:06:56;18.52;;;12.25;;
36745;SDS011;22715;52.182;21.206;2022-10-19T00:09:21;17.42;;;11.95;;
36745;SDS011;22715;52.182;21.206;2022-10-19T00:11:48;14.73;;;11.35;;
36745;SDS011;22715;52.182;21.206;2022-10-19T00:14:14;14.93;;;10.98;;
36745;SDS011;22715;52.182;21.206;2022-10-19T00:16:40;15.85;;;11.20;;
36745;SDS011;22715;52.182;21.206;2022-10-19T00:19:07;11.82;;;9.15;;
36745;SDS011;22715;52.182;21.206;2022-10-19T00:21:33;11.65;;;9.02;;
36745;SDS011;22715;52.182;21.206;2022-10-19T00:23:58;16.27;;;10.52;;
36745;SDS011;22715;52.182;21.206;2022-10-19T00:26:23;9.88;;;8.23;;
36745;SDS011;22715;52.182;21.206;2022-10-19T00:28:50;13.05;;;9.73;;
36745;SDS011;22715;52.182;21.206;2022-10-19T00:31:16;14.70;;;7.25;;
36745;SDS011;22715;52.182;21.206;2022-10-19T00:33:42;10.70;;;8.32;;
36745;SDS011;22715;52.182;21.206;2022-10-19T00:36:17;12.98;;;7.93;;
36745;SDS011;22715;52.182;21.206;2022-10-19T00:38:43;12.32;;;8.18;;
36745;SDS011;22715;52.182;21.206;2022-10-19T00:41:08;8.98;;;6.55;;
36745;SDS011;22715;52.182;21.206;2022-10-19T00:43:54;11.63;;;7.43;;
36745;SDS011;22715;52.182;21.206;2022-10-19T00:46:20;10.80;;;7.05;;
36745;SDS011;22715;52.182;21.206;2022-10-19T00:48:45;9.70;;;7.15;;
36745;SDS011;22715;52.182;21.206;2022-10-19T00:51:11;9.63;;;7.18;;
36745;SDS011;22715;52.182;21.206;2022-10-19T00:53:36;11.70;;;7.25;;
36745;SDS011;22715;52.182;21.206;2022-10-19T00:56:02;9.82;;;5.90;;
36745;SDS011;22715;52.182;21.206;2022-10-19T00:58:29;11.77;;;7.32;;
36745;SDS011;22715;52.182;21.206;2022-10-19T01:00:54;12.48;;;6.72;;
36745;SDS011;22715;52.182;21.206;2022-10-19T01:03:26;11.95;;;6.63;;
36745;SDS011;22715;52.182;21.206;2022-10-19T01:05:52;11.13;;;6.38;;
36745;SDS011;22715;52.182;21.206;2022-10-19T01:08:17;12.05;;;5.90;;
36745;SDS011;22715;52.182;21.206;2022-10-19T01:21:20;9.80;;;5.97;;
36745;SDS011;22715;52.182;21.206;2022-10-19T01:34:28;11.00;;;6.57;;
36745;SDS011;22715;52.182;21.206;2022-10-19T01:39:37;12.60;;;7.55;;
36745;SDS011;22715;52.182;21.206;2022-10-19T01:42:11;12.27;;;7.32;;
36745;SDS011;22715;52.182;21.206;2022-10-19T01:47:06;12.35;;;8.93;;
36745;SDS011;22715;52.182;21.206;2022-10-19T01:52:08;12.88;;;8.43;;
36745;SDS011;22715;52.182;21.206;2022-10-19T01:54:36;15.88;;;9.73;;
36745;SDS011;22715;52.182;21.206;2022-10-19T01:57:03;14.85;;;10.80;;
36745;SDS011;22715;52.182;21.206;2022-10-19T01:59:30;16.67;;;11.55;;
36745;SDS011;22715;52.182;21.206;2022-10-19T02:01:56;22.85;;;12.07;;
36745;SDS011;22715;52.182;21.206;2022-10-19T02:04:22;19.65;;;13.15;;
36745;SDS011;22715;52.182;21.206;2022-10-19T02:06:49;19.30;;;13.32;;
36745;SDS011;22715;52.182;21.206;2022-10-19T02:09:15;19.45;;;13.50;;
36745;SDS011;22715;52.182;21.206;2022-10-19T02:11:51;15.15;;;11.10;;
36745;SDS011;22715;52.182;21.206;2022-10-19T02:14:21;18.73;;;12.80;;
36745;SDS011;22715;52.182;21.206;2022-10-19T02:16:52;17.95;;;13.18;;
36745;SDS011;22715;52.182;21.206;2022-10-19T02:19:19;16.13;;;13.65;;
36745;SDS011;22715;52.182;21.206;2022-10-19T02:21:45;18.80;;;12.20;;
36745;SDS011;22715;52.182;21.206;2022-10-19T02:24:10;12.52;;;9.93;;
36745;SDS011;22715;52.182;21.206;2022-10-19T02:26:36;12.40;;;10.02;;
36745;SDS011;22715;52.182;21.206;2022-10-19T02:29:02;16.73;;;9.55;;
36745;SDS011;22715;52.182;21.206;2022-10-19T02:31:27;19.90;;;10.35;;
36745;SDS011;22715;52.182;21.206;2022-10-19T02:33:52;14.05;;;9.93;;
36745;SDS011;22715;52.182;21.206;2022-10-19T02:36:18;21.55;;;11.02;;
36745;SDS011;22715;52.182;21.206;2022-10-19T02:38:43;14.57;;;10.60;;
36745;SDS011;22715;52.182;21.206;2022-10-19T02:41:17;16.52;;;9.98;;
36745;SDS011;22715;52.182;21.206;2022-10-19T02:43:46;15.65;;;9.43;;
36745;SDS011;22715;52.182;21.206;2022-10-19T02:46:15;18.63;;;10.32;;
36745;SDS011;22715;52.182;21.206;2022-10-19T02:48:42;18.13;;;9.15;;
36745;SDS011;22715;52.182;21.206;2022-10-19T02:51:25;19.70;;;9.35;;
36745;SDS011;22715;52.182;21.206;2022-10-19T02:53:50;14.95;;;8.70;;
36745;SDS011;22715;52.182;21.206;2022-10-19T02:56:16;13.27;;;9.05;;
36745;SDS011;22715;52.182;21.206;2022-10-19T02:58:43;16.85;;;9.95;;
36745;SDS011;22715;52.182;21.206;2022-10-19T03:01:08;16.63;;;11.77;;
36745;SDS011;22715;52.182;21.206;2022-10-19T03:03:34;16.85;;;11.45;;
36745;SDS011;22715;52.182;21.206;2022-10-19T03:05:59;16.73;;;10.77;;
36745;SDS011;22715;52.182;21.206;2022-10-19T03:08:24;15.52;;;9.93;;
36745;SDS011;22715;52.182;21.206;2022-10-19T03:10:50;15.88;;;10.10;;
36745;SDS011;22715;52.182;21.206;2022-10-19T03:13:15;17.42;;;10.63;;
36745;SDS011;22715;52.182;21.206;2022-10-19T03:15:40;25.17;;;12.30;;
36745;SDS011;22715;52.182;21.206;2022-10-19T03:18:06;13.35;;;9.50;;
36745;SDS011;22715;52.182;21.206;2022-10-19T03:20:31;16.95;;;12.50;;
36745;SDS011;22715;52.182;21.206;2022-10-19T03:22:57;16.63;;;10.82;;
36745;SDS011;22715;52.182;21.206;2022-10-19T03:25:22;16.77;;;10.40;;
36745;SDS011;22715;52.182;21.206;2022-10-19T03:27:47;19.23;;;10.13;;
36745;SDS011;22715;52.182;21.206;2022-10-19T03:30:13;15.35;;;9.20;;
36745;SDS011;22715;52.182;21.206;2022-10-19T03:32:38;16.95;;;11.52;;
36745;SDS011;22715;52.182;21.206;2022-10-19T03:35:04;15.75;;;9.82;;
36745;SDS011;22715;52.182;21.206;2022-10-19T03:37:29;16.65;;;10.20;;
36745;SDS011;22715;52.182;21.206;2022-10-19T03:39:56;15.63;;;9.18;;
36745;SDS011;22715;52.182;21.206;2022-10-19T03:42:21;20.30;;;9.68;;
36745;SDS011;22715;52.182;21.206;2022-10-19T03:44:46;16.52;;;8.60;;
36745;SDS011;22715;52.182;21.206;2022-10-19T03:47:12;15.40;;;8.52;;
36745;SDS011;22715;52.182;21.206;2022-10-19T03:49:37;17.40;;;9.32;;
36745;SDS011;22715;52.182;21.206;2022-10-19T03:52:02;13.68;;;9.20;;
36745;SDS011;22715;52.182;21.206;2022-10-19T03:54:28;13.68;;;9.02;;
36745;SDS011;22715;52.182;21.206;2022-10-19T03:56:53;14.90;;;9.70;;
36745;SDS011;22715;52.182;21.206;2022-10-19T03:59:19;11.45;;;9.32;;
36745;SDS011;22715;52.182;21.206;2022-10-19T04:01:50;12.63;;;9.80;;
36745;SDS011;22715;52.182;21.206;2022-10-19T04:04:16;18.98;;;9.48;;
36745;SDS011;22715;52.182;21.206;2022-10-19T04:06:42;12.63;;;8.32;;
36745;SDS011;22715;52.182;21.206;2022-10-19T04:09:08;15.90;;;9.95;;
36745;SDS011;22715;52.182;21.206;2022-10-19T04:11:35;17.35;;;8.13;;
36745;SDS011;22715;52.182;21.206;2022-10-19T04:14:02;12.63;;;7.78;;
36745;SDS011;22715;52.182;21.206;2022-10-19T04:16:28;15.65;;;8.60;;
36745;SDS011;22715;52.182;21.206;2022-10-19T04:18:54;17.55;;;8.10;;
36745;SDS011;22715;52.182;21.206;2022-10-19T04:23:45;15.68;;;11.27;;
36745;SDS011;22715;52.182;21.206;2022-10-19T04:26:10;16.95;;;10.32;;
36745;SDS011;22715;52.182;21.206;2022-10-19T04:28:35;10.02;;;7.63;;
36745;SDS011;22715;52.182;21.206;2022-10-19T04:31:01;17.85;;;9.45;;
36745;SDS011;22715;52.182;21.206;2022-10-19T04:33:27;12.38;;;7.93;;
36745;SDS011;22715;52.182;21.206;2022-10-19T04:35:58;11.23;;;7.55;;
36745;SDS011;22715;52.182;21.206;2022-10-19T04:38:24;14.75;;;7.97;;
36745;SDS011;22715;52.182;21.206;2022-10-19T04:40:49;19.38;;;9.65;;
36745;SDS011;22715;52.182;21.206;2022-10-19T04:43:15;13.80;;;7.30;;
36745;SDS011;22715;52.182;21.206;2022-10-19T04:45:40;14.98;;;8.07;;
36745;SDS011;22715;52.182;21.206;2022-10-19T04:48:05;11.25;;;6.82;;
36745;SDS011;22715;52.182;21.206;2022-10-19T04:50:31;14.07;;;7.68;;
36745;SDS011;22715;52.182;21.206;2022-10-19T04:52:56;8.85;;;7.00;;
36745;SDS011;22715;52.182;21.206;2022-10-19T04:55:23;11.27;;;6.70;;
36745;SDS011;22715;52.182;21.206;2022-10-19T04:57:48;10.43;;;6.15;;
36745;SDS011;22715;52.182;21.206;2022-10-19T05:00:13;10.63;;;5.45;;
36745;SDS011;22715;52.182;21.206;2022-10-19T05:02:42;9.95;;;6.60;;
36745;SDS011;22715;52.182;21.206;2022-10-19T05:05:08;7.55;;;5.07;;
36745;SDS011;22715;52.182;21.206;2022-10-19T05:07:34;8.85;;;6.35;;
36745;SDS011;22715;52.182;21.206;2022-10-19T05:09:59;11.35;;;5.93;;
36745;SDS011;22715;52.182;21.206;2022-10-19T05:12:24;8.48;;;5.63;;
36745;SDS011;22715;52.182;21.206;2022-10-19T05:14:49;14.07;;;6.07;;
36745;SDS011;22715;52.182;21.206;2022-10-19T05:17:15;10.15;;;6.68;;
36745;SDS011;22715;52.182;21.206;2022-10-19T05:19:40;11.35;;;6.35;;
36745;SDS011;22715;52.182;21.206;2022-10-19T05:22:06;10.45;;;5.82;;
36745;SDS011;22715;52.182;21.206;2022-10-19T05:24:32;11.73;;;6.32;;
36745;SDS011;22715;52.182;21.206;2022-10-19T05:26:57;11.15;;;5.78;;
36745;SDS011;22715;52.182;21.206;2022-10-19T05:29:22;5.35;;;4.28;;
36745;SDS011;22715;52.182;21.206;2022-10-19T05:31:48;16.17;;;6.53;;
36745;SDS011;22715;52.182;21.206;2022-10-19T05:34:13;17.40;;;5.95;;
36745;SDS011;22715;52.182;21.206;2022-10-19T05:36:39;9.63;;;6.50;;
36745;SDS011;22715;52.182;21.206;2022-10-19T05:39:11;9.70;;;5.25;;
36745;SDS011;22715;52.182;21.206;2022-10-19T05:41:36;11.38;;;4.88;;
36745;SDS011;22715;52.182;21.206;2022-10-19T05:44:02;11.45;;;5.88;;
36745;SDS011;22715;52.182;21.206;2022-10-19T05:46:28;10.82;;;5.53;;
36745;SDS011;22715;52.182;21.206;2022-10-19T05:48:57;11.00;;;5.93;;
36745;SDS011;22715;52.182;21.206;2022-10-19T05:51:23;5.75;;;4.35;;
36745;SDS011;22715;52.182;21.206;2022-10-19T05:53:53;11.35;;;5.65;;
36745;SDS011;22715;52.182;21.206;2022-10-19T05:56:20;9.00;;;4.50;;
36745;SDS011;22715;52.182;21.206;2022-10-19T05:58:46;7.57;;;5.30;;
36745;SDS011;22715;52.182;21.206;2022-10-19T06:01:12;10.80;;;4.78;;
36745;SDS011;22715;52.182;21.206;2022-10-19T06:03:38;12.98;;;4.07;;
36745;SDS011;22715;52.182;21.206;2022-10-19T06:06:05;7.60;;;4.20;;
36745;SDS011;22715;52.182;21.206;2022-10-19T06:08:30;6.93;;;5.15;;
36745;SDS011;22715;52.182;21.206;2022-10-19T06:11:09;9.70;;;4.35;;
36745;SDS011;22715;52.182;21.206;2022-10-19T06:13:35;8.52;;;4.85;;
36745;SDS011;22715;52.182;21.206;2022-10-19T06:16:01;10.75;;;6.10;;
36745;SDS011;22715;52.182;21.206;2022-10-19T06:18:26;5.38;;;3.55;;
36745;SDS011;22715;52.182;21.206;2022-10-19T06:20:52;8.77;;;4.22;;
36745;SDS011;22715;52.182;21.206;2022-10-19T06:23:17;7.03;;;4.00;;
36745;SDS011;22715;52.182;21.206;2022-10-19T06:25:42;16.95;;;4.90;;
36745;SDS011;22715;52.182;21.206;2022-10-19T06:28:08;5.57;;;4.65;;
36745;SDS011;22715;52.182;21.206;2022-10-19T06:30:33;6.63;;;4.65;;
36745;SDS011;22715;52.182;21.206;2022-10-19T06:33:02;7.85;;;5.80;;
36745;SDS011;22715;52.182;21.206;2022-10-19T06:35:27;9.02;;;3.65;;
36745;SDS011;22715;52.182;21.206;2022-10-19T06:37:54;7.45;;;3.90;;
36745;SDS011;22715;52.182;21.206;2022-10-19T06:40:19;8.77;;;3.15;;
36745;SDS011;22715;52.182;21.206;2022-10-19T06:42:56;6.25;;;3.47;;
36745;SDS011;22715;52.182;21.206;2022-10-19T06:45:22;7.57;;;4.20;;
36745;SDS011;22715;52.182;21.206;2022-10-19T06:47:48;6.90;;;3.70;;
36745;SDS011;22715;52.182;21.206;2022-10-19T06:50:13;10.40;;;3.90;;
36745;SDS011;22715;52.182;21.206;2022-10-19T06:52:41;7.25;;;3.85;;
36745;SDS011;22715;52.182;21.206;2022-10-19T06:55:07;10.18;;;4.13;;
36745;SDS011;22715;52.182;21.206;2022-10-19T06:57:32;4.55;;;3.22;;
36745;SDS011;22715;52.182;21.206;2022-10-19T06:59:58;7.32;;;3.10;;
36745;SDS011;22715;52.182;21.206;2022-10-19T07:02:23;5.95;;;3.38;;
36745;SDS011;22715;52.182;21.206;2022-10-19T07:04:48;3.83;;;2.83;;
36745;SDS011;22715;52.182;21.206;2022-10-19T07:07:14;6.20;;;3.85;;
36745;SDS011;22715;52.182;21.206;2022-10-19T07:09:39;12.20;;;3.88;;
36745;SDS011;22715;52.182;21.206;2022-10-19T07:12:04;8.15;;;4.05;;
36745;SDS011;22715;52.182;21.206;2022-10-19T07:14:30;4.03;;;3.35;;
36745;SDS011;22715;52.182;21.206;2022-10-19T07:16:55;6.65;;;4.07;;
36745;SDS011;22715;52.182;21.206;2022-10-19T07:19:25;4.78;;;3.88;;
36745;SDS011;22715;52.182;21.206;2022-10-19T07:21:50;7.95;;;5.18;;
36745;SDS011;22715;52.182;21.206;2022-10-19T07:24:16;9.13;;;4.38;;
36745;SDS011;22715;52.182;21.206;2022-10-19T07:26:42;5.85;;;3.67;;
36745;SDS011;22715;52.182;21.206;2022-10-19T07:29:07;5.68;;;4.35;;
36745;SDS011;22715;52.182;21.206;2022-10-19T07:31:32;5.15;;;4.00;;
36745;SDS011;22715;52.182;21.206;2022-10-19T07:33:59;8.93;;;4.18;;
36745;SDS011;22715;52.182;21.206;2022-10-19T07:36:24;5.22;;;3.72;;
36745;SDS011;22715;52.182;21.206;2022-10-19T07:38:50;4.85;;;3.50;;
36745;SDS011;22715;52.182;21.206;2022-10-19T07:41:17;4.85;;;3.03;;
36745;SDS011;22715;52.182;21.206;2022-10-19T07:43:43;5.05;;;2.90;;
36745;SDS011;22715;52.182;21.206;2022-10-19T07:46:24;5.80;;;2.88;;
36745;SDS011;22715;52.182;21.206;2022-10-19T07:48:50;5.03;;;2.35;;
36745;SDS011;22715;52.182;21.206;2022-10-19T07:51:16;4.53;;;2.53;;
36745;SDS011;22715;52.182;21.206;2022-10-19T07:53:42;2.63;;;2.10;;
36745;SDS011;22715;52.182;21.206;2022-10-19T07:56:16;3.90;;;3.08;;
36745;SDS011;22715;52.182;21.206;2022-10-19T07:58:42;2.97;;;2.42;;
36745;SDS011;22715;52.182;21.206;2022-10-19T08:01:08;3.78;;;2.45;;
36745;SDS011;22715;52.182;21.206;2022-10-19T08:03:34;3.13;;;2.45;;
36745;SDS011;22715;52.182;21.206;2022-10-19T08:06:00;5.80;;;2.50;;
36745;SDS011;22715;52.182;21.206;2022-10-19T08:08:25;8.30;;;3.05;;
36745;SDS011;22715;52.182;21.206;2022-10-19T08:10:50;7.45;;;3.00;;
36745;SDS011;22715;52.182;21.206;2022-10-19T08:13:16;5.53;;;2.67;;
36745;SDS011;22715;52.182;21.206;2022-10-19T08:15:41;5.38;;;2.45;;
36745;SDS011;22715;52.182;21.206;2022-10-19T08:18:06;5.47;;;2.95;;
36745;SDS011;22715;52.182;21.206;2022-10-19T08:20:31;4.63;;;2.92;;
36745;SDS011;22715;52.182;21.206;2022-10-19T08:22:59;4.65;;;3.28;;
36745;SDS011;22715;52.182;21.206;2022-10-19T08:25:26;5.63;;;2.05;;
36745;SDS011;22715;52.182;21.206;2022-10-19T08:27:54;5.35;;;2.72;;
36745;SDS011;22715;52.182;21.206;2022-10-19T08:30:19;4.32;;;2.60;;
36745;SDS011;22715;52.182;21.206;2022-10-19T08:32:45;3.75;;;2.67;;
36745;SDS011;22715;52.182;21.206;2022-10-19T08:35:10;7.47;;;5.22;;
36745;SDS011;22715;52.182;21.206;2022-10-19T08:37:39;4.50;;;2.72;;
36745;SDS011;22715;52.182;21.206;2022-10-19T08:40:04;3.88;;;2.38;;
36745;SDS011;22715;52.182;21.206;2022-10-19T08:42:42;6.32;;;2.67;;
36745;SDS011;22715;52.182;21.206;2022-10-19T08:50:39;3.20;;;2.50;;
36745;SDS011;22715;52.182;21.206;2022-10-19T08:53:06;6.07;;;2.10;;
36745;SDS011;22715;52.182;21.206;2022-10-19T08:55:38;3.03;;;2.72;;
36745;SDS011;22715;52.182;21.206;2022-10-19T08:58:09;4.63;;;2.45;;
36745;SDS011;22715;52.182;21.206;2022-10-19T09:00:41;2.65;;;2.38;;
36745;SDS011;22715;52.182;21.206;2022-10-19T09:08:27;3.78;;;2.40;;
36745;SDS011;22715;52.182;21.206;2022-10-19T09:10:52;3.65;;;3.08;;
36745;SDS011;22715;52.182;21.206;2022-10-19T09:15:55;3.38;;;2.70;;
36745;SDS011;22715;52.182;21.206;2022-10-19T09:18:25;4.60;;;2.67;;
36745;SDS011;22715;52.182;21.206;2022-10-19T09:21:15;5.32;;;3.13;;
36745;SDS011;22715;52.182;21.206;2022-10-19T09:26:28;3.00;;;2.47;;
36745;SDS011;22715;52.182;21.206;2022-10-19T09:33:52;4.18;;;2.47;;
36745;SDS011;22715;52.182;21.206;2022-10-19T09:36:19;6.43;;;2.65;;
36745;SDS011;22715;52.182;21.206;2022-10-19T09:38:49;4.00;;;3.63;;
36745;SDS011;22715;52.182;21.206;2022-10-19T09:41:20;6.60;;;3.72;;
36745;SDS011;22715;52.182;21.206;2022-10-19T09:43:55;5.75;;;2.85;;
36745;SDS011;22715;52.182;21.206;2022-10-19T09:46:56;3.40;;;2.75;;
36745;SDS011;22715;52.182;21.206;2022-10-19T09:49:16;4.55;;;3.15;;
36745;SDS011;22715;52.182;21.206;2022-10-19T09:51:51;3.40;;;2.70;;
36745;SDS011;22715;52.182;21.206;2022-10-19T09:54:24;3.42;;;2.97;;
36745;SDS011;22715;52.182;21.206;2022-10-19T09:56:54;4.47;;;2.30;;
36745;SDS011;22715;52.182;21.206;2022-10-19T09:59:20;5.88;;;4.00;;
36745;SDS011;22715;52.182;21.206;2022-10-19T10:01:46;2.40;;;2.20;;
36745;SDS011;22715;52.182;21.206;2022-10-19T10:04:22;4.72;;;1.90;;
36745;SDS011;22715;52.182;21.206;2022-10-19T10:06:48;1.67;;;1.17;;
36745;SDS011;22715;52.182;21.206;2022-10-19T10:09:17;1.05;;;0.82;;
36745;SDS011;22715;52.182;21.206;2022-10-19T10:11:44;1.13;;;0.77;;
36745;SDS011;22715;52.182;21.206;2022-10-19T10:16:40;1.38;;;0.60;;
36745;SDS011;22715;52.182;21.206;2022-10-19T10:19:05;1.83;;;0.63;;
36745;SDS011;22715;52.182;21.206;2022-10-19T10:21:32;3.95;;;1.15;;
36745;SDS011;22715;52.182;21.206;2022-10-19T10:26:42;1.98;;;0.70;;
36745;SDS011;22715;52.182;21.206;2022-10-19T10:29:26;1.05;;;0.80;;
36745;SDS011;22715;52.182;21.206;2022-10-19T10:31:57;2.03;;;0.95;;
36745;SDS011;22715;52.182;21.206;2022-10-19T10:34:31;0.57;;;0.47;;
36745;SDS011;22715;52.182;21.206;2022-10-19T10:36:57;7.30;;;1.20;;
36745;SDS011;22715;52.182;21.206;2022-10-19T10:39:23;3.53;;;0.90;;
36745;SDS011;22715;52.182;21.206;2022-10-19T10:41:51;1.80;;;1.05;;
36745;SDS011;22715;52.182;21.206;2022-10-19T10:44:18;1.80;;;0.63;;
36745;SDS011;22715;52.182;21.206;2022-10-19T10:46:53;1.10;;;1.00;;
36745;SDS011;22715;52.182;21.206;2022-10-19T10:49:32;3.17;;;2.25;;
36745;SDS011;22715;52.182;21.206;2022-10-19T10:52:31;1.75;;;1.00;;
36745;SDS011;22715;52.182;21.206;2022-10-19T10:54:57;2.13;;;1.25;;
36745;SDS011;22715;52.182;21.206;2022-10-19T10:57:23;1.65;;;0.85;;
36745;SDS011;22715;52.182;21.206;2022-10-19T11:02:50;1.92;;;0.80;;
36745;SDS011;22715;52.182;21.206;2022-10-19T11:10:38;3.40;;;1.33;;
36745;SDS011;22715;52.182;21.206;2022-10-19T11:18:12;2.60;;;0.70;;
36745;SDS011;22715;52.182;21.206;2022-10-19T11:20:43;1.20;;;0.77;;
36745;SDS011;22715;52.182;21.206;2022-10-19T11:23:17;0.82;;;0.57;;
36745;SDS011;22715;52.182;21.206;2022-10-19T11:28:12;1.88;;;0.80;;
36745;SDS011;22715;52.182;21.206;2022-10-19T11:33:32;2.00;;;0.70;;
36745;SDS011;22715;52.182;21.206;2022-10-19T11:36:01;3.30;;;1.02;;
36745;SDS011;22715;52.182;21.206;2022-10-19T11:41:36;5.28;;;1.02;;
36745;SDS011;22715;52.182;21.206;2022-10-19T11:46:45;0.77;;;0.75;;
36745;SDS011;22715;52.182;21.206;2022-10-19T11:51:52;1.67;;;0.68;;
36745;SDS011;22715;52.182;21.206;2022-10-19T11:54:37;1.23;;;0.57;;
36745;SDS011;22715;52.182;21.206;2022-10-19T11:57:15;1.40;;;0.68;;
36745;SDS011;22715;52.182;21.206;2022-10-19T12:09:51;1.92;;;0.85;;
36745;SDS011;22715;52.182;21.206;2022-10-19T12:12:32;1.88;;;0.52;;
36745;SDS011;22715;52.182;21.206;2022-10-19T12:17:38;11.60;;;1.58;;
36745;SDS011;22715;52.182;21.206;2022-10-19T12:20:07;0.80;;;0.45;;
36745;SDS011;22715;52.182;21.206;2022-10-19T12:22:33;0.40;;;0.40;;
36745;SDS011;22715;52.182;21.206;2022-10-19T12:25:01;1.35;;;0.63;;
36745;SDS011;22715;52.182;21.206;2022-10-19T12:27:29;2.03;;;0.63;;
36745;SDS011;22715;52.182;21.206;2022-10-19T12:29:57;1.48;;;0.40;;
36745;SDS011;22715;52.182;21.206;2022-10-19T12:32:25;3.88;;;0.45;;
36745;SDS011;22715;52.182;21.206;2022-10-19T12:34:55;1.95;;;0.40;;
36745;SDS011;22715;52.182;21.206;2022-10-19T12:37:27;1.50;;;0.53;;
36745;SDS011;22715;52.182;21.206;2022-10-19T12:42:26;1.00;;;0.22;;
36745;SDS011;22715;52.182;21.206;2022-10-19T12:44:55;0.40;;;0.20;;
36745;SDS011;22715;52.182;21.206;2022-10-19T12:47:25;0.60;;;0.30;;
36745;SDS011;22715;52.182;21.206;2022-10-19T12:49:54;0.80;;;0.30;;
36745;SDS011;22715;52.182;21.206;2022-10-19T12:57:47;0.82;;;0.28;;
36745;SDS011;22715;52.182;21.206;2022-10-19T13:00:27;0.63;;;0.32;;
36745;SDS011;22715;52.182;21.206;2022-10-19T13:06:10;4.70;;;0.55;;
36745;SDS011;22715;52.182;21.206;2022-10-19T13:11:17;0.43;;;0.30;;
36745;SDS011;22715;52.182;21.206;2022-10-19T13:13:49;1.05;;;0.52;;
36745;SDS011;22715;52.182;21.206;2022-10-19T13:24:32;0.90;;;0.30;;
36745;SDS011;22715;52.182;21.206;2022-10-19T13:34:47;4.43;;;0.95;;
36745;SDS011;22715;52.182;21.206;2022-10-19T13:37:12;0.82;;;0.20;;
36745;SDS011;22715;52.182;21.206;2022-10-19T13:39:40;0.45;;;0.30;;
36745;SDS011;22715;52.182;21.206;2022-10-19T13:44:51;1.48;;;0.40;;
36745;SDS011;22715;52.182;21.206;2022-10-19T13:50:05;2.85;;;0.40;;
36745;SDS011;22715;52.182;21.206;2022-10-19T13:52:46;0.30;;;0.30;;
36745;SDS011;22715;52.182;21.206;2022-10-19T13:58:13;0.43;;;0.30;;
36745;SDS011;22715;52.182;21.206;2022-10-19T14:13:41;2.42;;;0.40;;
36745;SDS011;22715;52.182;21.206;2022-10-19T14:16:15;1.67;;;0.45;;
36745;SDS011;22715;52.182;21.206;2022-10-19T14:18:41;2.25;;;1.27;;
36745;SDS011;22715;52.182;21.206;2022-10-19T14:21:07;1.85;;;0.50;;
36745;SDS011;22715;52.182;21.206;2022-10-19T14:23:34;0.40;;;0.30;;
36745;SDS011;22715;52.182;21.206;2022-10-19T14:26:01;0.52;;;0.52;;
36745;SDS011;22715;52.182;21.206;2022-10-19T14:28:27;0.40;;;0.38;;
36745;SDS011;22715;52.182;21.206;2022-10-19T14:33:59;0.95;;;0.20;;
36745;SDS011;22715;52.182;21.206;2022-10-19T14:36:26;0.93;;;0.50;;
36745;SDS011;22715;52.182;21.206;2022-10-19T14:38:54;0.93;;;0.40;;
36745;SDS011;22715;52.182;21.206;2022-10-19T14:41:28;1.20;;;0.32;;
36745;SDS011;22715;52.182;21.206;2022-10-19T14:43:57;1.65;;;0.40;;
36745;SDS011;22715;52.182;21.206;2022-10-19T14:46:27;0.55;;;0.20;;
36745;SDS011;22715;52.182;21.206;2022-10-19T14:48:58;0.98;;;0.65;;
36745;SDS011;22715;52.182;21.206;2022-10-19T14:57:03;0.98;;;0.43;;
36745;SDS011;22715;52.182;21.206;2022-10-19T14:59:31;1.40;;;0.82;;
36745;SDS011;22715;52.182;21.206;2022-10-19T15:01:59;3.90;;;0.60;;
36745;SDS011;22715;52.182;21.206;2022-10-19T15:04:26;1.15;;;0.55;;
36745;SDS011;22715;52.182;21.206;2022-10-19T15:06:52;1.23;;;0.55;;
36745;SDS011;22715;52.182;21.206;2022-10-19T15:09:29;0.90;;;0.73;;
36745;SDS011;22715;52.182;21.206;2022-10-19T15:12:07;0.45;;;0.30;;
36745;SDS011;22715;52.182;21.206;2022-10-19T15:14:32;0.77;;;0.50;;
36745;SDS011;22715;52.182;21.206;2022-10-19T15:16:59;0.80;;;0.70;;
36745;SDS011;22715;52.182;21.206;2022-10-19T15:24:35;4.30;;;0.73;;
36745;SDS011;22715;52.182;21.206;2022-10-19T15:27:07;0.75;;;0.40;;
36745;SDS011;22715;52.182;21.206;2022-10-19T15:29:33;1.27;;;0.60;;
36745;SDS011;22715;52.182;21.206;2022-10-19T15:32:11;0.55;;;0.52;;
36745;SDS011;22715;52.182;21.206;2022-10-19T15:34:36;0.40;;;0.40;;
36745;SDS011;22715;52.182;21.206;2022-10-19T15:37:02;0.90;;;0.50;;
36745;SDS011;22715;52.182;21.206;2022-10-19T15:39:31;2.28;;;0.90;;
36745;SDS011;22715;52.182;21.206;2022-10-19T15:44:45;1.48;;;0.90;;
36745;SDS011;22715;52.182;21.206;2022-10-19T15:47:13;1.13;;;0.47;;
36745;SDS011;22715;52.182;21.206;2022-10-19T15:52:13;4.43;;;0.70;;
36745;SDS011;22715;52.182;21.206;2022-10-19T15:54:39;0.63;;;0.47;;
36745;SDS011;22715;52.182;21.206;2022-10-19T15:57:15;1.40;;;0.60;;
36745;SDS011;22715;52.182;21.206;2022-10-19T15:59:45;3.13;;;0.60;;
36745;SDS011;22715;52.182;21.206;2022-10-19T16:02:12;3.58;;;1.10;;
36745;SDS011;22715;52.182;21.206;2022-10-19T16:04:38;1.60;;;0.70;;
36745;SDS011;22715;52.182;21.206;2022-10-19T16:07:03;1.95;;;0.70;;
36745;SDS011;22715;52.182;21.206;2022-10-19T16:09:28;1.55;;;0.80;;
36745;SDS011;22715;52.182;21.206;2022-10-19T16:11:55;1.63;;;0.90;;
36745;SDS011;22715;52.182;21.206;2022-10-19T16:14:26;2.53;;;0.77;;
36745;SDS011;22715;52.182;21.206;2022-10-19T16:16:53;3.40;;;1.00;;
36745;SDS011;22715;52.182;21.206;2022-10-19T16:19:19;1.88;;;1.00;;
36745;SDS011;22715;52.182;21.206;2022-10-19T16:21:44;1.42;;;0.82;;
36745;SDS011;22715;52.182;21.206;2022-10-19T16:24:10;3.35;;;1.00;;
36745;SDS011;22715;52.182;21.206;2022-10-19T16:26:35;1.48;;;1.02;;
36745;SDS011;22715;52.182;21.206;2022-10-19T16:29:00;1.23;;;0.73;;
36745;SDS011;22715;52.182;21.206;2022-10-19T16:31:26;2.75;;;1.20;;
36745;SDS011;22715;52.182;21.206;2022-10-19T16:33:52;3.47;;;1.40;;
36745;SDS011;22715;52.182;21.206;2022-10-19T16:36:17;3.78;;;1.40;;
36745;SDS011;22715;52.182;21.206;2022-10-19T16:38:45;2.15;;;1.23;;
36745;SDS011;22715;52.182;21.206;2022-10-19T16:41:11;1.80;;;0.90;;
36745;SDS011;22715;52.182;21.206;2022-10-19T16:43:36;1.25;;;0.85;;
36745;SDS011;22715;52.182;21.206;2022-10-19T16:46:02;1.95;;;1.20;;
36745;SDS011;22715;52.182;21.206;2022-10-19T16:48:35;2.00;;;0.95;;
36745;SDS011;22715;52.182;21.206;2022-10-19T16:53:34;4.47;;;1.13;;
36745;SDS011;22715;52.182;21.206;2022-10-19T16:56:10;4.03;;;1.42;;
36745;SDS011;22715;52.182;21.206;2022-10-19T16:58:36;1.73;;;1.02;;
36745;SDS011;22715;52.182;21.206;2022-10-19T17:01:05;1.75;;;0.90;;
36745;SDS011;22715;52.182;21.206;2022-10-19T17:03:31;1.25;;;0.85;;
36745;SDS011;22715;52.182;21.206;2022-10-19T17:05:56;2.00;;;1.27;;
36745;SDS011;22715;52.182;21.206;2022-10-19T17:08:22;2.88;;;1.20;;
36745;SDS011;22715;52.182;21.206;2022-10-19T17:10:47;4.13;;;1.60;;
36745;SDS011;22715;52.182;21.206;2022-10-19T17:13:12;1.92;;;1.20;;
36745;SDS011;22715;52.182;21.206;2022-10-19T17:15:38;2.00;;;1.23;;
36745;SDS011;22715;52.182;21.206;2022-10-19T17:18:03;2.35;;;1.30;;
36745;SDS011;22715;52.182;21.206;2022-10-19T17:20:28;1.40;;;1.30;;
36745;SDS011;22715;52.182;21.206;2022-10-19T17:22:53;1.58;;;1.38;;
36745;SDS011;22715;52.182;21.206;2022-10-19T17:25:19;3.13;;;1.50;;